| time (UTC) | temp C | wind direction | speed KPH | gust KPH | rain 1hr cm | rain 24hr cm | rain mn cm | humidity % | barometer mb |
| 20260831022023 | 16 | 0.0 | 0.0 | 0.00 | 0.74 | 0.46 | 99 | 1015.9 | |
| 20260831021517 | 16 | 0.0 | 0.0 | 0.00 | 0.74 | 0.46 | 99 | 1015.8 | |
| 20260831021023 | 16 | 283 | 0.0 | 3.2 | 0.00 | 0.74 | 0.46 | 99 | 1015.8 |
| 20260831020517 | 16 | 0.0 | 0.0 | 0.00 | 0.74 | 0.46 | 99 | 1016.5 | |
| 20260831020023 | 16 | 284 | 0.0 | 3.2 | 0.00 | 0.74 | 0.46 | 99 | 1016.8 |
| 20260831015547 | 16 | 0.0 | 0.0 | 0.00 | 0.74 | 0.46 | 99 | 1016.8 | |
| 20260831015053 | 16 | 0.0 | 0.0 | 0.00 | 0.74 | 0.46 | 99 | 1016.8 | |
| 20260831014945 | 16 | 0.0 | 0.0 | 0.00 | 0.74 | 0.46 | 99 | 1015.8 | |
| 20260831014023 | 16 | 0.0 | 0.0 | 0.00 | 0.74 | 0.46 | 99 | 1015.8 | |
| 20260831013912 | 16 | 284 | 0.0 | 3.2 | 0.00 | 0.74 | 0.46 | 99 | 1015.8 |
| 20260831013024 | 16 | 284 | 0.0 | 0.0 | 0.00 | 0.74 | 0.46 | 99 | 1015.8 |
| 20260831012518 | 16 | 284 | 0.0 | 1.6 | 0.00 | 0.74 | 0.46 | 99 | 1015.8 |
| 20260831012024 | 16 | 283 | 0.0 | 1.6 | 0.00 | 0.74 | 0.46 | 99 | 1015.8 |
| 20260831011518 | 16 | 284 | 0.0 | 3.2 | 0.00 | 0.74 | 0.46 | 99 | 1015.8 |
| 20260831011024 | 16 | 283 | 0.0 | 1.6 | 0.00 | 0.74 | 0.46 | 99 | 1015.8 |
| 20260831010518 | 16 | 0.0 | 0.0 | 0.00 | 0.74 | 0.46 | 99 | 1015.8 | |
| 20260831010025 | 16 | 0.0 | 0.0 | 0.00 | 0.74 | 0.46 | 99 | 1015.8 | |
| 20260831005519 | 16 | 0.0 | 0.0 | 0.00 | 0.74 | 0.46 | 99 | 1015.8 | |
| 20260831005025 | 16 | 0.0 | 0.0 | 0.00 | 0.74 | 0.46 | 99 | 1015.8 | |
| 20260831004520 | 17 | 0.0 | 0.0 | 0.00 | 0.74 | 0.46 | 99 | 1015.8 | |
| 20260831004026 | 17 | 283 | 0.0 | 3.2 | 0.00 | 0.74 | 0.46 | 99 | 1015.8 |
| 20260831003550 | 17 | 283 | 0.0 | 1.6 | 0.00 | 0.74 | 0.46 | 99 | 1015.8 |
| 20260831003027 | 17 | 285 | 0.0 | 1.6 | 0.03 | 0.74 | 0.46 | 99 | 1015.8 |
| 20260831002521 | 17 | 285 | 0.0 | 3.2 | 0.03 | 0.74 | 0.46 | 99 | 1015.8 |
| 20260831002015 | 17 | 284 | 0.0 | 3.2 | 0.05 | 0.74 | 0.46 | 99 | 1015.8 |
| 20260831001521 | 17 | 286 | 0.0 | 1.6 | 0.05 | 0.74 | 0.46 | 99 | 1015.8 |
| 20260831001046 | 17 | 284 | 0.0 | 3.2 | 0.05 | 0.74 | 0.46 | 99 | 1015.8 |
| 20260831000522 | 17 | 284 | 0.0 | 0.0 | 0.05 | 0.74 | 0.46 | 99 | 1015.8 |
| 20260831000016 | 17 | 285 | 0.0 | 3.2 | 0.10 | 0.74 | 0.46 | 99 | 1015.8 |
| 20260830235553 | 17 | 286 | 0.0 | 1.6 | 0.18 | 0.74 | 0.46 | 99 | 1015.8 |
| 20260830235017 | 17 | 287 | 0.0 | 1.6 | 0.18 | 0.74 | 0.46 | 99 | 1015.8 |
| 20260830234523 | 17 | 286 | 0.0 | 1.6 | 0.20 | 0.74 | 0.46 | 99 | 1015.8 |
| 20260830234017 | 17 | 0.0 | 0.0 | 0.23 | 0.74 | 0.46 | 99 | 1015.8 | |
| 20260830233524 | 17 | 283 | 0.0 | 3.2 | 0.25 | 0.74 | 0.46 | 99 | 1015.8 |
| 20260830233218 | 17 | 285 | 0.0 | 1.6 | 0.30 | 0.71 | 0.43 | 99 | 1015.8 |
| 20260830232624 | 17 | 0.0 | 0.0 | 0.38 | 0.71 | 0.43 | 99 | 1015.8 | |
| 20260830232018 | 17 | 286 | 0.0 | 1.6 | 0.38 | 0.69 | 0.41 | 99 | 1015.8 |
| 20260830231525 | 17 | 286 | 0.0 | 1.6 | 0.38 | 0.69 | 0.41 | 99 | 1015.8 |
| 20260830231019 | 17 | 290 | 0.0 | 1.6 | 0.38 | 0.69 | 0.41 | 99 | 1015.8 |
| 20260830230525 | 17 | 285 | 0.0 | 3.2 | 0.38 | 0.69 | 0.41 | 99 | 1015.8 |
| 20260830230019 | 17 | 284 | 1.6 | 4.8 | 0.36 | 0.64 | 0.36 | 99 | 1015.8 |
| 20260830225526 | 17 | 284 | 1.6 | 8.0 | 0.28 | 0.56 | 0.28 | 99 | 1015.7 |
| 20260830225020 | 17 | 286 | 0.0 | 3.2 | 0.28 | 0.56 | 0.28 | 99 | 1015.7 |
| 20260830224526 | 17 | 285 | 0.0 | 3.2 | 0.28 | 0.53 | 0.25 | 99 | 1015.7 |
| 20260830224049 | 17 | 284 | 0.0 | 1.6 | 0.30 | 0.51 | 0.23 | 99 | 1015.7 |
| 20260830223526 | 17 | 283 | 0.0 | 1.6 | 0.33 | 0.48 | 0.20 | 99 | 1015.7 |
| 20260830223020 | 17 | 0.0 | 0.0 | 0.28 | 0.41 | 0.13 | 99 | 1015.7 | |
| 20260830222526 | 17 | 0.0 | 0.0 | 0.23 | 0.33 | 0.05 | 99 | 1015.7 | |
| 20260830222020 | 17 | 0.0 | 0.0 | 0.23 | 0.30 | 0.03 | 99 | 1015.7 | |
| 20260830221540 | 17 | 0.0 | 0.0 | 0.25 | 0.30 | 0.03 | 99 | 1015.7 | |
| 20260830221034 | 17 | 0.0 | 0.0 | 0.28 | 0.30 | 0.03 | 99 | 1015.7 | |
| 20260830220529 | 17 | 0.0 | 0.0 | 0.30 | 0.30 | 0.03 | 98 | 1015.7 | |
| 20260830220022 | 17 | 0.0 | 0.0 | 0.28 | 0.28 | 0.00 | 98 | 1015.7 | |
| 20260830215517 | 17 | 0.0 | 0.0 | 0.28 | 0.28 | 0.28 | 97 | 1015.7 | |
| 20260830215022 | 17 | 0.0 | 0.0 | 0.28 | 0.28 | 0.28 | 97 | 1015.7 | |
| 20260830214516 | 17 | 0.0 | 0.0 | 0.25 | 0.25 | 0.25 | 97 | 1015.7 | |
| 20260830214022 | 17 | 0.0 | 0.0 | 0.20 | 0.20 | 0.20 | 96 | 1015.7 | |
| 20260830213516 | 17 | 0.0 | 0.0 | 0.15 | 0.15 | 0.15 | 96 | 1015.7 | |
| 20260830213022 | 17 | 0.0 | 0.0 | 0.13 | 0.13 | 0.13 | 97 | 1015.7 | |
| 20260830212546 | 17 | 0.0 | 0.0 | 0.10 | 0.10 | 0.10 | 96 | 1015.7 | |
| 20260830212023 | 17 | 0.0 | 0.0 | 0.08 | 0.08 | 0.08 | 95 | 1015.7 | |
| 20260830211517 | 17 | 0.0 | 0.0 | 0.05 | 0.05 | 0.05 | 95 | 1015.7 | |
| 20260830211023 | 17 | 0.0 | 0.0 | 0.03 | 0.03 | 0.03 | 94 | 1015.7 | |
| 20260830210517 | 17 | 0.0 | 0.0 | 0.00 | 0.00 | 0.00 | 93 | 1015.7 | |
| 20260830210024 | 17 | 0.0 | 0.0 | 0.00 | 0.00 | 0.00 | 92 | 1015.7 | |
| 20260830205518 | 17 | 0.0 | 0.0 | 0.00 | 0.00 | 0.00 | 91 | 1015.7 | |
| 20260830205024 | 17 | 0.0 | 0.0 | 0.00 | 0.00 | 0.00 | 90 | 1015.7 | |
| 20260830204519 | 17 | 0.0 | 0.0 | 0.00 | 0.00 | 0.00 | 89 | 1015.3 | |
| 20260830204025 | 17 | 0.0 | 0.0 | 0.00 | 0.00 | 0.00 | 89 | 1014.6 | |
| 20260830203519 | 17 | 0.0 | 0.0 | 0.00 | 0.00 | 0.00 | 88 | 1014.6 | |
| 20260830203026 | 17 | 0.0 | 0.0 | 0.00 | 0.00 | 0.00 | 87 | 1014.6 | |
| 20260830202550 | 17 | 0.0 | 0.0 | 0.00 | 0.00 | 0.00 | 87 | 1014.6 | |
| 20260830202026 | 17 | 0.0 | 0.0 | 0.00 | 0.00 | 0.00 | 87 | 1014.6 | |
| 20260830201521 | 17 | 0.0 | 0.0 | 0.00 | 0.00 | 0.00 | 86 | 1014.6 | |
| 20260830201127 | 17 | 0.0 | 0.0 | 0.00 | 0.00 | 0.00 | 86 | 1014.6 | |
| 20260830200521 | 17 | 0.0 | 0.0 | 0.00 | 0.00 | 0.00 | 85 | 1014.6 | |
| 20260830200015 | 17 | 0.0 | 0.0 | 0.00 | 0.00 | 0.00 | 85 | 1014.6 | |
| 20260830195521 | 17 | 0.0 | 0.0 | 0.00 | 0.00 | 0.00 | 85 | 1014.6 | |
| 20260830195015 | 17 | 0.0 | 0.0 | 0.00 | 0.00 | 0.00 | 85 | 1014.6 | |
| 20260830194522 | 17 | 0.0 | 0.0 | 0.00 | 0.00 | 0.00 | 84 | 1014.6 | |
| 20260830194016 | 17 | 0.0 | 0.0 | 0.00 | 0.00 | 0.00 | 84 | 1014.6 | |
| 20260830193522 | 17 | 0.0 | 0.0 | 0.00 | 0.00 | 0.00 | 83 | 1014.6 | |
| 20260830193016 | 17 | 0.0 | 0.0 | 0.00 | 0.00 | 0.00 | 83 | 1014.6 | |
| 20260830192523 | 17 | 0.0 | 0.0 | 0.00 | 0.00 | 0.00 | 83 | 1014.6 | |
| 20260830192017 | 17 | 0.0 | 0.0 | 0.00 | 0.00 | 0.00 | 83 | 1014.6 | |
| 20260830191523 | 18 | 0.0 | 0.0 | 0.00 | 0.00 | 0.00 | 83 | 1014.6 | |
| 20260830191017 | 18 | 0.0 | 0.0 | 0.00 | 0.00 | 0.00 | 82 | 1014.6 | |
| 20260830190523 | 18 | 0.0 | 0.0 | 0.00 | 0.00 | 0.00 | 82 | 1014.6 | |
| 20260830190047 | 18 | 0.0 | 0.0 | 0.00 | 0.00 | 0.00 | 82 | 1014.6 | |
| 20260830185524 | 18 | 0.0 | 0.0 | 0.00 | 0.00 | 0.00 | 82 | 1014.6 | |
| 20260830185048 | 18 | 0.0 | 0.0 | 0.00 | 0.00 | 0.00 | 81 | 1014.6 | |
| 20260830184524 | 18 | 0.0 | 0.0 | 0.00 | 0.00 | 0.00 | 82 | 1014.6 | |
| 20260830184018 | 18 | 0.0 | 0.0 | 0.00 | 0.00 | 0.00 | 82 | 1014.6 | |
| 20260830183624 | 19 | 0.0 | 0.0 | 0.00 | 0.00 | 0.00 | 81 | 1014.6 | |
| 20260830183018 | 19 | 0.0 | 0.0 | 0.00 | 0.00 | 0.00 | 80 | 1014.6 | |
| 20260830182525 | 20 | 0.0 | 0.0 | 0.00 | 0.00 | 0.00 | 79 | 1014.6 | |
| 20260830182019 | 20 | 0.0 | 0.0 | 0.00 | 0.00 | 0.00 | 80 | 1014.6 | |
| 20260830181525 | 20 | 0.0 | 0.0 | 0.00 | 0.00 | 0.00 | 78 | 1014.6 | |
| 20260830181019 | 20 | 0.0 | 0.0 | 0.00 | 0.00 | 0.00 | 77 | 1014.6 | |
| 20260830180526 | 20 | 0.0 | 0.0 | 0.00 | 0.00 | 0.00 | 77 | 1014.7 | |
| 20260830180019 | 20 | 0.0 | 0.0 | 0.00 | 0.00 | 0.00 | 77 | 1014.7 | |
| 20260830175539 | 21 | 0.0 | 0.0 | 0.00 | 0.00 | 0.00 | 76 | 1014.7 | |
| 20260830175033 | 21 | 0.0 | 0.0 | 0.00 | 0.00 | 0.00 | 75 | 1014.7 | |
| 20260830174528 | 21 | 0.0 | 0.0 | 0.00 | 0.00 | 0.00 | 76 | 1014.7 | |
| 20260830174021 | 21 | 0.0 | 0.0 | 0.00 | 0.00 | 0.00 | 76 | 1014.7 | |
| 20260830173615 | 22 | 0.0 | 0.0 | 0.00 | 0.00 | 0.00 | 74 | 1014.7 | |
| 20260830173021 | 22 | 0.0 | 0.0 | 0.00 | 0.00 | 0.00 | 72 | 1014.7 | |
| 20260830172556 | 22 | 0.0 | 0.0 | 0.00 | 0.00 | 0.00 | 70 | 1014.8 | |
| 20260830172021 | 22 | 0.0 | 0.0 | 0.00 | 0.00 | 0.00 | 71 | 1014.8 | |
| 20260830171557 | 22 | 0.0 | 0.0 | 0.00 | 0.00 | 0.00 | 69 | 1014.8 | |
| 20260830171021 | 22 | 0.0 | 0.0 | 0.00 | 0.00 | 0.00 | 69 | 1014.8 | |
| 20260830170515 | 22 | 0.0 | 0.0 | 0.00 | 0.00 | 0.00 | 69 | 1014.8 | |
| 20260830170046 | 23 | 0.0 | 0.0 | 0.00 | 0.00 | 0.00 | 69 | 1014.8 | |
| 20260830165545 | 23 | 0.0 | 0.0 | 0.00 | 0.00 | 0.00 | 69 | 1014.8 | |
| 20260830165051 | 23 | 0.0 | 0.0 | 0.00 | 0.00 | 0.00 | 67 | 1014.8 | |
| 20260830164516 | 23 | 320 | 0.0 | 0.0 | 0.00 | 0.00 | 0.00 | 66 | 1014.8 |
| 20260830164021 | 23 | 0.0 | 0.0 | 0.00 | 0.00 | 0.00 | 63 | 1015.2 | |
| 20260830163515 | 23 | 0.0 | 0.0 | 0.00 | 0.00 | 0.00 | 61 | 1015.8 | |
| 20260830163022 | 23 | 0.0 | 0.0 | 0.00 | 0.00 | 0.00 | 61 | 1015.8 | |
| 20260830162516 | 24 | 306 | 0.0 | 3.2 | 0.00 | 0.00 | 0.00 | 59 | 1015.8 |
| 20260830162022 | 24 | 323 | 0.0 | 0.0 | 0.00 | 0.00 | 0.00 | 59 | 1015.8 |
| 20260830161517 | 24 | 324 | 0.0 | 1.6 | 0.00 | 0.00 | 0.00 | 58 | 1015.8 |
| 20260830161036 | 24 | 324 | 0.0 | 1.6 | 0.00 | 0.00 | 0.00 | 58 | 1015.8 |
| 20260830160530 | 24 | 324 | 0.0 | 1.6 | 0.00 | 0.00 | 0.00 | 57 | 1015.8 |
| 20260830160024 | 24 | 310 | 1.6 | 4.8 | 0.00 | 0.00 | 0.00 | 57 | 1015.8 |
| 20260830155518 | 25 | 304 | 1.6 | 3.2 | 0.00 | 0.00 | 0.00 | 55 | 1015.8 |
| 20260830155024 | 25 | 314 | 0.0 | 3.2 | 0.00 | 0.00 | 0.00 | 55 | 1015.8 |
| 20260830154518 | 25 | 308 | 1.6 | 3.2 | 0.00 | 0.00 | 0.00 | 55 | 1015.8 |
| 20260830154024 | 25 | 309 | 1.6 | 3.2 | 0.00 | 0.00 | 0.00 | 54 | 1015.9 |
| 20260830153519 | 25 | 310 | 0.0 | 3.2 | 0.00 | 0.00 | 0.00 | 54 | 1015.8 |
| 20260830153025 | 25 | 313 | 0.0 | 3.2 | 0.00 | 0.00 | 0.00 | 54 | 1015.8 |
| 20260830152519 | 25 | 313 | 1.6 | 3.2 | 0.00 | 0.00 | 0.00 | 54 | 1015.9 |
| 20260830152025 | 25 | 303 | 1.6 | 9.7 | 0.00 | 0.00 | 0.00 | 52 | 1015.9 |
| 20260830151549 | 25 | 307 | 1.6 | 3.2 | 0.00 | 0.00 | 0.00 | 52 | 1015.9 |
| 20260830151026 | 25 | 290 | 1.6 | 8.0 | 0.00 | 0.00 | 0.00 | 52 | 1015.9 |
| 20260830150520 | 25 | 304 | 1.6 | 8.0 | 0.00 | 0.00 | 0.00 | 53 | 1015.9 |
| 20260830150026 | 25 | 285 | 3.2 | 12.9 | 0.00 | 0.00 | 0.00 | 53 | 1015.8 |
| 20260830145520 | 25 | 312 | 1.6 | 4.8 | 0.00 | 0.00 | 0.00 | 53 | 1015.8 |
| 20260830145027 | 25 | 295 | 3.2 | 8.0 | 0.00 | 0.00 | 0.00 | 54 | 1015.9 |
| 20260830144521 | 25 | 303 | 1.6 | 8.0 | 0.00 | 0.00 | 0.00 | 53 | 1015.9 |
| 20260830144015 | 25 | 284 | 3.2 | 9.7 | 0.00 | 0.00 | 0.00 | 52 | 1015.9 |
| 20260830143521 | 25 | 285 | 3.2 | 16.1 | 0.00 | 0.00 | 0.00 | 54 | 1015.9 |
| 20260830143015 | 25 | 294 | 1.6 | 6.4 | 0.00 | 0.00 | 0.00 | 54 | 1015.9 |
| 20260830142521 | 25 | 293 | 3.2 | 9.7 | 0.00 | 0.00 | 0.00 | 54 | 1015.9 |
| 20260830142016 | 25 | 281 | 3.2 | 12.9 | 0.00 | 0.00 | 0.00 | 53 | 1015.9 |
| 20260830141522 | 25 | 298 | 1.6 | 4.8 | 0.00 | 0.00 | 0.00 | 54 | 1015.9 |
| 20260830141016 | 25 | 297 | 1.6 | 4.8 | 0.00 | 0.00 | 0.00 | 54 | 1015.9 |
| 20260830140522 | 25 | 293 | 3.2 | 9.7 | 0.00 | 0.00 | 0.00 | 53 | 1015.9 |
| 20260830140046 | 25 | 293 | 3.2 | 11.3 | 0.00 | 0.00 | 0.00 | 53 | 1015.9 |
| 20260830135522 | 25 | 278 | 1.6 | 8.0 | 0.00 | 0.00 | 0.00 | 53 | 1015.9 |
| 20260830135016 | 25 | 307 | 1.6 | 6.4 | 0.00 | 0.00 | 0.00 | 53 | 1015.9 |
| 20260830134552 | 25 | 286 | 3.2 | 8.0 | 0.00 | 0.00 | 0.00 | 53 | 1015.9 |
| 20260830134016 | 25 | 262 | 4.8 | 14.5 | 0.00 | 0.00 | 0.00 | 53 | 1015.9 |
| 20260830133523 | 25 | 277 | 3.2 | 12.9 | 0.00 | 0.00 | 0.00 | 53 | 1016.6 |
| 20260830133016 | 25 | 293 | 1.6 | 8.0 | 0.00 | 0.00 | 0.00 | 54 | 1016.9 |
| 20260830132523 | 25 | 295 | 3.2 | 9.7 | 0.00 | 0.00 | 0.00 | 54 | 1016.9 |
| 20260830132017 | 25 | 284 | 3.2 | 8.0 | 0.00 | 0.00 | 0.00 | 54 | 1016.3 |
| 20260830131523 | 25 | 263 | 6.4 | 12.9 | 0.00 | 0.00 | 0.00 | 54 | 1015.9 |
| 20260830131147 | 24 | 280 | 4.8 | 9.7 | 0.00 | 0.00 | 0.00 | 55 | 1015.8 |
| 20260830130523 | 24 | 270 | 3.2 | 12.9 | 0.00 | 0.00 | 0.00 | 56 | 1016.4 |
| 20260830130047 | 24 | 266 | 6.4 | 14.5 | 0.00 | 0.00 | 0.00 | 55 | 1016.9 |
| 20260830125553 | 25 | 272 | 4.8 | 11.3 | 0.00 | 0.00 | 0.00 | 55 | 1016.9 |
| 20260830125017 | 25 | 271 | 4.8 | 12.9 | 0.00 | 0.00 | 0.00 | 54 | 1016.9 |
| 20260830124523 | 25 | 267 | 4.8 | 12.9 | 0.00 | 0.00 | 0.00 | 54 | 1016.9 |
| 20260830124017 | 25 | 301 | 1.6 | 8.0 | 0.00 | 0.00 | 0.00 | 54 | 1016.9 |
| 20260830123523 | 25 | 300 | 1.6 | 8.0 | 0.00 | 0.00 | 0.00 | 55 | 1016.9 |
| 20260830123017 | 25 | 280 | 4.8 | 14.5 | 0.00 | 0.00 | 0.00 | 54 | 1016.9 |
| 20260830122524 | 25 | 270 | 3.2 | 12.9 | 0.00 | 0.00 | 0.00 | 55 | 1016.9 |
| 20260830122018 | 25 | 280 | 3.2 | 8.0 | 0.00 | 0.00 | 0.00 | 56 | 1016.9 |
| 20260830121524 | 24 | 264 | 4.8 | 12.9 | 0.00 | 0.00 | 0.00 | 56 | 1016.9 |
| 20260830121018 | 24 | 264 | 3.2 | 12.9 | 0.00 | 0.00 | 0.00 | 57 | 1016.8 |
| 20260830120524 | 24 | 266 | 4.8 | 12.9 | 0.00 | 0.00 | 0.00 | 57 | 1016.9 |
| 20260830120018 | 25 | 290 | 4.8 | 12.9 | 0.00 | 0.00 | 0.00 | 56 | 1016.9 |
| 20260830115537 | 25 | 290 | 4.8 | 12.9 | 0.00 | 0.00 | 0.00 | 56 | 1016.9 |
| 20260830115031 | 25 | 298 | 3.2 | 9.7 | 0.00 | 0.00 | 0.00 | 57 | 1016.9 |
| 20260830114525 | 24 | 282 | 3.2 | 9.7 | 0.00 | 0.00 | 0.00 | 58 | 1016.9 |
| 20260830114019 | 24 | 288 | 4.8 | 11.3 | 0.00 | 0.00 | 0.00 | 58 | 1016.9 |
| 20260830113524 | 24 | 288 | 3.2 | 11.3 | 0.00 | 0.00 | 0.00 | 60 | 1016.9 |
| 20260830113048 | 24 | 284 | 3.2 | 12.9 | 0.00 | 0.00 | 0.00 | 60 | 1016.9 |
| 20260830112525 | 24 | 265 | 4.8 | 20.9 | 0.00 | 0.00 | 0.00 | 59 | 1016.9 |
| 20260830112019 | 24 | 280 | 3.2 | 11.3 | 0.00 | 0.00 | 0.00 | 59 | 1016.9 |
| 20260830111525 | 23 | 298 | 3.2 | 8.0 | 0.00 | 0.00 | 0.00 | 60 | 1016.9 |
| 20260830111019 | 23 | 291 | 3.2 | 8.0 | 0.00 | 0.00 | 0.00 | 62 | 1016.8 |
| 20260830110525 | 23 | 272 | 4.8 | 16.1 | 0.00 | 0.00 | 0.00 | 63 | 1016.8 |
| 20260830110019 | 23 | 269 | 6.4 | 17.7 | 0.00 | 0.00 | 0.00 | 63 | 1016.8 |
| 20260830105556 | 23 | 289 | 3.2 | 8.0 | 0.00 | 0.00 | 0.00 | 64 | 1016.8 |
| 20260830105020 | 23 | 278 | 4.8 | 12.9 | 0.00 | 0.00 | 0.00 | 63 | 1016.9 |
| 20260830104525 | 23 | 291 | 3.2 | 8.0 | 0.00 | 0.00 | 0.00 | 63 | 1016.8 |
| 20260830104027 | 23 | 302 | 1.6 | 4.8 | 0.00 | 0.00 | 0.00 | 63 | 1016.8 |
| 20260830103521 | 22 | 271 | 4.8 | 12.9 | 0.00 | 0.00 | 0.00 | 65 | 1016.8 |
| 20260830103026 | 22 | 299 | 1.6 | 4.8 | 0.00 | 0.00 | 0.00 | 67 | 1016.8 |
| 20260830102550 | 22 | 275 | 4.8 | 16.1 | 0.00 | 0.00 | 0.00 | 67 | 1016.8 |
| 20260830102026 | 22 | 293 | 1.6 | 3.2 | 0.00 | 0.00 | 0.00 | 68 | 1016.8 |
| 20260830101520 | 22 | 303 | 1.6 | 4.8 | 0.00 | 0.00 | 0.00 | 68 | 1016.8 |
| 20260830101026 | 22 | 279 | 4.8 | 12.9 | 0.00 | 0.00 | 0.00 | 68 | 1016.8 |
| 20260830100520 | 22 | 290 | 3.2 | 8.0 | 0.00 | 0.00 | 0.00 | 67 | 1016.8 |
| 20260830100026 | 22 | 291 | 1.6 | 8.0 | 0.00 | 0.00 | 0.00 | 67 | 1016.8 |
| 20260830095520 | 23 | 295 | 3.2 | 8.0 | 0.00 | 0.00 | 0.00 | 66 | 1016.9 |
| 20260830095026 | 23 | 284 | 3.2 | 9.7 | 0.00 | 0.00 | 0.00 | 64 | 1016.9 |
| 20260830094550 | 22 | 302 | 3.2 | 14.5 | 0.00 | 0.00 | 0.00 | 64 | 1016.8 |
| 20260830094026 | 22 | 288 | 3.2 | 9.7 | 0.00 | 0.00 | 0.00 | 65 | 1016.8 |
| 20260830093520 | 23 | 289 | 3.2 | 12.9 | 0.00 | 0.00 | 0.00 | 65 | 1016.9 |
| 20260830093027 | 23 | 288 | 1.6 | 14.5 | 0.00 | 0.00 | 0.00 | 64 | 1016.9 |
| 20260830092520 | 23 | 283 | 3.2 | 9.7 | 0.00 | 0.00 | 0.00 | 64 | 1016.9 |
| 20260830092026 | 23 | 283 | 1.6 | 12.9 | 0.00 | 0.00 | 0.00 | 65 | 1016.9 |
| 20260830091520 | 23 | 281 | 3.2 | 9.7 | 0.00 | 0.00 | 0.00 | 65 | 1016.9 |
| 20260830091027 | 22 | 299 | 1.6 | 6.4 | 0.00 | 0.00 | 0.00 | 66 | 1016.8 |
| 20260830090520 | 22 | 285 | 3.2 | 9.7 | 0.00 | 0.00 | 0.00 | 67 | 1016.8 |
| 20260830090026 | 22 | 291 | 3.2 | 9.7 | 0.00 | 0.00 | 0.00 | 68 | 1016.8 |
| 20260830085520 | 22 | 275 | 4.8 | 12.9 | 0.00 | 0.00 | 0.00 | 69 | 1016.8 |
| 20260830085027 | 22 | 289 | 3.2 | 12.9 | 0.00 | 0.00 | 0.00 | 70 | 1016.8 |
| 20260830084521 | 22 | 291 | 3.2 | 9.7 | 0.00 | 0.00 | 0.00 | 70 | 1016.8 |
| 20260830084026 | 22 | 299 | 1.6 | 8.0 | 0.00 | 0.00 | 0.00 | 70 | 1016.8 |
| 20260830083521 | 22 | 279 | 3.2 | 12.9 | 0.00 | 0.00 | 0.00 | 71 | 1016.8 |
| 20260830083027 | 22 | 283 | 3.2 | 8.0 | 0.00 | 0.00 | 0.00 | 71 | 1016.8 |
| 20260830082550 | 21 | 303 | 1.6 | 8.0 | 0.00 | 0.00 | 0.00 | 71 | 1016.8 |
| 20260830082027 | 21 | 285 | 3.2 | 11.3 | 0.00 | 0.00 | 0.00 | 71 | 1016.8 |
| 20260830081520 | 21 | 275 | 4.8 | 16.1 | 0.00 | 0.00 | 0.00 | 72 | 1016.8 |
| 20260830081027 | 21 | 272 | 4.8 | 16.1 | 0.00 | 0.00 | 0.00 | 72 | 1016.8 |
| 20260830080550 | 21 | 285 | 3.2 | 11.3 | 0.00 | 0.00 | 0.00 | 73 | 1016.8 |
| 20260830080027 | 21 | 279 | 4.8 | 12.9 | 0.00 | 0.00 | 0.00 | 74 | 1016.8 |
| 20260830075521 | 21 | 281 | 3.2 | 8.0 | 0.00 | 0.00 | 0.00 | 74 | 1016.8 |
| 20260830075225 | 21 | 308 | 1.6 | 4.8 | 0.00 | 0.00 | 0.00 | 77 | 1016.8 |
| 20260830074520 | 21 | 297 | 1.6 | 4.8 | 0.00 | 0.00 | 0.00 | 78 | 1016.8 |
| 20260830074345 | 20 | 303 | 3.2 | 8.0 | 0.00 | 0.00 | 0.00 | 78 | 1016.8 |
| 20260830073520 | 20 | 271 | 4.8 | 12.9 | 0.00 | 0.00 | 0.00 | 78 | 1016.8 |
| 20260830073027 | 20 | 297 | 1.6 | 8.0 | 0.00 | 0.00 | 0.00 | 79 | 1016.8 |
| 20260830072520 | 20 | 299 | 3.2 | 9.7 | 0.00 | 0.00 | 0.00 | 80 | 1016.8 |
| 20260830072026 | 20 | 296 | 1.6 | 16.1 | 0.00 | 0.00 | 0.00 | 80 | 1016.8 |
| 20260830071520 | 20 | 287 | 3.2 | 12.9 | 0.00 | 0.00 | 0.00 | 80 | 1016.8 |
| 20260830071056 | 20 | 294 | 1.6 | 4.8 | 0.00 | 0.00 | 0.00 | 80 | 1016.8 |
| 20260830070521 | 20 | 277 | 3.2 | 11.3 | 0.00 | 0.00 | 0.00 | 80 | 1016.8 |
| 20260830070026 | 20 | 281 | 1.6 | 9.7 | 0.00 | 0.00 | 0.00 | 80 | 1016.8 |
| 20260830065521 | 20 | 300 | 0.0 | 3.2 | 0.00 | 0.00 | 0.00 | 81 | 1016.7 |
| 20260830065027 | 20 | 310 | 1.6 | 8.0 | 0.00 | 0.00 | 0.00 | 82 | 1016.7 |
| 20260830064521 | 19 | 297 | 3.2 | 8.0 | 0.00 | 0.00 | 0.00 | 82 | 1016.7 |
| 20260830064057 | 19 | 285 | 3.2 | 9.7 | 0.00 | 0.00 | 0.00 | 83 | 1016.7 |
| 20260830063551 | 19 | 309 | 1.6 | 3.2 | 0.00 | 0.00 | 0.00 | 83 | 1016.7 |
| 20260830063115 | 19 | 297 | 1.6 | 12.9 | 0.00 | 0.00 | 0.00 | 83 | 1016.7 |
| 20260830062521 | 19 | 297 | 1.6 | 8.0 | 0.00 | 0.00 | 0.00 | 83 | 1015.9 |
| 20260830062015 | 19 | 297 | 1.6 | 6.4 | 0.00 | 0.00 | 0.00 | 83 | 1015.7 |
| 20260830061521 | 19 | 301 | 1.6 | 4.8 | 0.00 | 0.00 | 0.00 | 83 | 1015.8 |
| 20260830061015 | 19 | 297 | 1.6 | 3.2 | 0.00 | 0.00 | 0.00 | 83 | 1016.5 |
| 20260830060521 | 18 | 317 | 0.0 | 1.6 | 0.00 | 0.00 | 0.00 | 84 | 1016.8 |
| 20260830060015 | 18 | 301 | 1.6 | 4.8 | 0.00 | 0.00 | 0.00 | 84 | 1016.8 |
| 20260830055521 | 18 | 297 | 1.6 | 8.0 | 0.00 | 0.00 | 0.00 | 85 | 1016.0 |
| 20260830055016 | 18 | 307 | 0.0 | 3.2 | 0.00 | 0.00 | 0.00 | 86 | 1015.7 |
| 20260830054522 | 18 | 307 | 0.0 | 3.2 | 0.00 | 0.00 | 0.00 | 86 | 1015.7 |
| 20260830054046 | 18 | 299 | 1.6 | 4.8 | 0.00 | 0.00 | 0.00 | 86 | 1015.7 |
| 20260830053522 | 18 | 308 | 0.0 | 4.8 | 0.00 | 0.00 | 0.00 | 86 | 1015.7 |
| 20260830053046 | 18 | 312 | 0.0 | 3.2 | 0.00 | 0.00 | 0.00 | 86 | 1015.7 |
| 20260830052522 | 18 | 310 | 1.6 | 3.2 | 0.00 | 0.00 | 0.00 | 87 | 1015.7 |
| 20260830052017 | 18 | 315 | 0.0 | 3.2 | 0.00 | 0.00 | 0.00 | 87 | 1015.7 |
| 20260830051523 | 18 | 299 | 1.6 | 6.4 | 0.00 | 0.00 | 0.00 | 87 | 1015.8 |
| 20260830051016 | 18 | 302 | 1.6 | 3.2 | 0.00 | 0.00 | 0.00 | 87 | 1015.8 |
| 20260830050523 | 18 | 303 | 1.6 | 3.2 | 0.00 | 0.00 | 0.00 | 87 | 1015.8 |
| 20260830050017 | 18 | 313 | 0.0 | 1.6 | 0.00 | 0.00 | 0.00 | 87 | 1015.8 |
| 20260830045536 | 18 | 315 | 0.0 | 3.2 | 0.00 | 0.00 | 0.00 | 87 | 1015.8 |
| 20260830045030 | 18 | 300 | 1.6 | 4.8 | 0.00 | 0.00 | 0.00 | 87 | 1015.8 |
| 20260830044524 | 18 | 305 | 1.6 | 3.2 | 0.00 | 0.00 | 0.00 | 87 | 1015.8 |
| 20260830044017 | 18 | 294 | 1.6 | 4.8 | 0.00 | 0.03 | 0.00 | 87 | 1015.8 |
| 20260830043523 | 18 | 286 | 1.6 | 4.8 | 0.00 | 0.03 | 0.00 | 87 | 1015.8 |
| 20260830043017 | 18 | 289 | 0.0 | 1.6 | 0.00 | 0.03 | 0.00 | 87 | 1015.8 |
| 20260830042553 | 18 | 287 | 1.6 | 4.8 | 0.00 | 0.03 | 0.00 | 87 | 1015.8 |
| 20260830042017 | 18 | 289 | 1.6 | 3.2 | 0.00 | 0.03 | 0.00 | 87 | 1015.8 |
| 20260830041623 | 18 | 294 | 1.6 | 8.0 | 0.00 | 0.03 | 0.00 | 87 | 1015.8 |
| 20260830041017 | 18 | 294 | 1.6 | 3.2 | 0.00 | 0.03 | 0.00 | 87 | 1015.8 |
| 20260830040553 | 18 | 289 | 1.6 | 8.0 | 0.00 | 0.03 | 0.00 | 87 | 1015.8 |
| 20260830040047 | 18 | 290 | 1.6 | 8.0 | 0.00 | 0.03 | 0.00 | 87 | 1015.8 |
| 20260830035524 | 18 | 289 | 1.6 | 4.8 | 0.00 | 0.03 | 0.00 | 87 | 1015.8 |
| 20260830035018 | 18 | 296 | 1.6 | 4.8 | 0.00 | 0.03 | 0.00 | 86 | 1015.8 |
| 20260830034524 | 18 | 294 | 0.0 | 3.2 | 0.00 | 0.03 | 0.00 | 86 | 1015.8 |
| 20260830034018 | 18 | 293 | 1.6 | 8.0 | 0.00 | 0.03 | 0.00 | 86 | 1015.8 |
| 20260830033524 | 18 | 288 | 1.6 | 6.4 | 0.00 | 0.03 | 0.00 | 86 | 1015.8 |
| 20260830033018 | 18 | 287 | 3.2 | 11.3 | 0.00 | 0.03 | 0.00 | 86 | 1015.8 |
| 20260830032554 | 18 | 290 | 1.6 | 8.0 | 0.00 | 0.03 | 0.00 | 86 | 1015.8 |
| 20260830032018 | 18 | 292 | 1.6 | 8.0 | 0.00 | 0.03 | 0.00 | 86 | 1015.8 |
| 20260830031524 | 18 | 292 | 1.6 | 8.0 | 0.00 | 0.03 | 0.00 | 86 | 1015.8 |
| 20260830031018 | 18 | 286 | 1.6 | 4.8 | 0.00 | 0.03 | 0.00 | 86 | 1015.8 |
| 20260830030926 | 18 | 291 | 3.2 | 12.9 | 0.00 | 0.03 | 0.00 | 85 | 1015.8 |
| 20260830030019 | 18 | 287 | 1.6 | 4.8 | 0.00 | 0.03 | 0.00 | 86 | 1015.8 |
| 20260830025931 | 18 | 289 | 3.2 | 9.7 | 0.00 | 0.03 | 0.00 | 86 | 1015.8 |
| 20260830025018 | 18 | 294 | 1.6 | 9.7 | 0.00 | 0.03 | 0.00 | 86 | 1015.8 |
| 20260830024524 | 18 | 290 | 1.6 | 4.8 | 0.00 | 0.03 | 0.00 | 85 | 1015.8 |
| 20260830024018 | 19 | 291 | 3.2 | 8.0 | 0.00 | 0.03 | 0.00 | 85 | 1015.8 |
| 20260830023525 | 19 | 294 | 1.6 | 8.0 | 0.00 | 0.03 | 0.00 | 85 | 1015.8 |
| 20260830023019 | 19 | 291 | 1.6 | 8.0 | 0.00 | 0.03 | 0.00 | 85 | 1015.8 |